createdAt,value
2018-06-29T00:01:11.667Z,11.00
2018-06-29T00:03:39.843Z,12.90
2018-06-29T00:06:08.092Z,12.03
2018-06-29T00:08:36.454Z,11.50
2018-06-29T00:11:04.676Z,13.53
2018-06-29T00:13:32.907Z,11.93
2018-06-29T00:16:01.419Z,13.27
2018-06-29T00:18:29.683Z,14.27
2018-06-29T00:20:57.864Z,13.93
2018-06-29T00:23:26.019Z,12.93
2018-06-29T00:25:54.416Z,13.17
2018-06-29T00:28:22.675Z,12.50
2018-06-29T00:30:50.907Z,13.33
2018-06-29T00:33:19.047Z,12.97
2018-06-29T00:35:47.437Z,12.87
2018-06-29T00:38:15.695Z,13.77
2018-06-29T00:40:43.880Z,13.30
2018-06-29T00:43:12.039Z,12.70
2018-06-29T00:45:40.551Z,14.50
2018-06-29T00:48:08.823Z,14.10
2018-06-29T00:50:37.076Z,14.10
2018-06-29T00:53:05.289Z,11.90
2018-06-29T00:55:33.862Z,11.60
2018-06-29T00:58:02.025Z,12.13
2018-06-29T01:00:30.197Z,13.30
2018-06-29T01:02:58.376Z,12.73
2018-06-29T01:05:26.748Z,12.10
2018-06-29T01:07:55.153Z,11.70
2018-06-29T01:10:23.340Z,12.70
2018-06-29T01:12:51.984Z,13.43
2018-06-29T01:15:20.276Z,12.07
2018-06-29T01:17:48.412Z,11.87
2018-06-29T01:20:16.643Z,13.17
2018-06-29T01:22:44.783Z,12.33
2018-06-29T01:25:13.091Z,12.67
2018-06-29T01:27:41.289Z,12.10
2018-06-29T01:30:09.453Z,14.07
2018-06-29T01:32:37.599Z,15.07
2018-06-29T01:35:06.127Z,14.10
2018-06-29T01:37:34.452Z,15.07
2018-06-29T01:40:03.047Z,14.20
2018-06-29T01:42:31.213Z,14.37
2018-06-29T01:44:59.399Z,14.33
2018-06-29T01:47:27.671Z,15.10
2018-06-29T01:49:55.896Z,15.67
2018-06-29T01:52:24.107Z,14.60
2018-06-29T01:54:52.450Z,15.20
2018-06-29T01:57:20.952Z,14.87
2018-06-29T01:59:49.119Z,14.07
2018-06-29T02:02:17.971Z,15.37
2018-06-29T02:04:46.496Z,15.20
2018-06-29T02:07:14.741Z,14.87
2018-06-29T02:09:43.671Z,14.20
2018-06-29T02:12:12.004Z,14.53
2018-06-29T02:14:40.160Z,15.90
2018-06-29T02:17:08.304Z,16.00
2018-06-29T02:19:36.657Z,14.87
2018-06-29T02:22:04.943Z,14.90
2018-06-29T02:24:33.079Z,15.53
2018-06-29T02:27:01.257Z,15.60
2018-06-29T02:29:29.476Z,15.10
2018-06-29T02:31:58.008Z,14.73
2018-06-29T02:34:26.184Z,14.83
2018-06-29T02:36:54.763Z,15.53
2018-06-29T02:39:23.036Z,15.03
2018-06-29T02:41:51.674Z,14.70
2018-06-29T02:44:19.838Z,14.77
2018-06-29T02:46:48.113Z,15.13
2018-06-29T02:49:16.343Z,15.00
2018-06-29T02:51:44.540Z,15.43
2018-06-29T02:54:12.819Z,15.13
2018-06-29T02:56:41.084Z,14.83
2018-06-29T02:59:09.664Z,14.03
2018-06-29T03:01:37.799Z,14.37
2018-06-29T03:04:06.092Z,16.00
2018-06-29T03:06:34.492Z,14.60
2018-06-29T03:09:02.800Z,15.37
2018-06-29T03:11:30.969Z,14.30
2018-06-29T03:13:59.152Z,13.80
2018-06-29T03:16:27.304Z,15.10
2018-06-29T03:18:55.491Z,14.00
2018-06-29T03:21:23.674Z,14.43
2018-06-29T03:23:52.048Z,14.07
2018-06-29T03:26:20.215Z,14.50
2018-06-29T03:28:48.504Z,15.10
2018-06-29T03:31:17.180Z,14.30
2018-06-29T03:33:46.048Z,15.17
2018-06-29T03:36:14.244Z,13.80
2018-06-29T03:38:42.416Z,13.57
2018-06-29T03:41:10.812Z,13.30
2018-06-29T03:43:39.217Z,12.73
2018-06-29T03:46:07.660Z,13.70
2018-06-29T03:48:35.940Z,14.20
2018-06-29T03:51:04.241Z,13.33
2018-06-29T03:53:32.393Z,13.40
2018-06-29T03:56:00.589Z,13.20
2018-06-29T03:58:28.845Z,13.53
2018-06-29T04:00:57.138Z,13.30
2018-06-29T04:03:25.432Z,12.40
2018-06-29T04:05:54.039Z,12.93
2018-06-29T04:08:22.272Z,13.37
2018-06-29T04:10:50.573Z,13.50
2018-06-29T04:13:18.715Z,12.60
2018-06-29T04:15:47.275Z,12.80
2018-06-29T04:18:15.524Z,12.67
2018-06-29T04:20:43.712Z,12.57
2018-06-29T04:23:11.894Z,12.30
2018-06-29T04:25:40.050Z,12.63
2018-06-29T04:28:08.259Z,12.67
2018-06-29T04:30:36.540Z,11.50
2018-06-29T04:33:04.839Z,11.83
2018-06-29T04:35:32.973Z,12.77
2018-06-29T04:38:01.204Z,12.80
2018-06-29T04:40:29.879Z,12.63
2018-06-29T04:42:58.460Z,12.23
2018-06-29T04:45:26.960Z,13.43
2018-06-29T04:47:55.140Z,13.40
2018-06-29T04:50:23.324Z,13.30
2018-06-29T04:52:51.591Z,14.40
2018-06-29T04:55:19.992Z,13.97
2018-06-29T04:57:48.205Z,14.80
2018-06-29T05:00:16.488Z,13.80
2018-06-29T05:02:45.179Z,15.07
2018-06-29T05:05:13.450Z,13.70
2018-06-29T05:07:41.590Z,14.00
2018-06-29T05:10:10.129Z,13.17
2018-06-29T05:12:38.650Z,13.93
2018-06-29T05:15:06.932Z,13.17
2018-06-29T05:17:35.104Z,13.80
2018-06-29T05:20:03.274Z,13.90
2018-06-29T05:22:31.414Z,12.47
2018-06-29T05:24:59.769Z,14.43
2018-06-29T05:27:28.291Z,13.50
2018-06-29T05:29:56.468Z,13.47
2018-06-29T05:32:24.655Z,13.37
2018-06-29T05:34:52.867Z,13.93
2018-06-29T05:37:21.162Z,11.77
2018-06-29T05:39:49.308Z,12.80
2018-06-29T05:42:18.260Z,12.53
2018-06-29T05:44:46.436Z,11.47
2018-06-29T05:47:14.808Z,12.13
2018-06-29T05:49:42.984Z,13.23
2018-06-29T05:52:11.283Z,12.53
2018-06-29T05:54:39.944Z,13.30
2018-06-29T05:57:08.347Z,12.60
2018-06-29T05:59:36.500Z,11.80
2018-06-29T06:02:04.929Z,12.57
2018-06-29T06:04:33.325Z,11.70
2018-06-29T06:07:01.664Z,12.17
2018-06-29T06:09:30.326Z,12.03
2018-06-29T06:11:58.856Z,12.63
2018-06-29T06:14:26.999Z,12.27
2018-06-29T06:16:55.282Z,12.80
2018-06-29T06:19:28.860Z,13.37
2018-06-29T06:21:57.463Z,14.23
2018-06-29T06:24:27.872Z,13.43
2018-06-29T06:26:56.121Z,13.77
2018-06-29T06:29:24.275Z,13.90
2018-06-29T06:31:52.717Z,13.10
2018-06-29T06:34:20.864Z,13.03
2018-06-29T06:36:48.998Z,13.13
2018-06-29T06:39:17.159Z,12.60
2018-06-29T06:41:45.374Z,12.43
2018-06-29T06:44:13.584Z,13.30
2018-06-29T06:46:41.785Z,12.80
2018-06-29T06:49:09.994Z,13.40
2018-06-29T06:51:38.203Z,12.47
2018-06-29T06:54:06.458Z,12.87
2018-06-29T06:56:34.701Z,12.70
2018-06-29T06:59:02.988Z,12.33
2018-06-29T07:01:31.444Z,12.40
2018-06-29T07:03:59.707Z,12.63
2018-06-29T07:06:28.286Z,11.87
2018-06-29T07:08:56.544Z,12.50
2018-06-29T07:11:24.871Z,12.23
2018-06-29T07:13:53.188Z,12.83
2018-06-29T07:16:21.521Z,11.90
2018-06-29T07:18:49.705Z,12.30
2018-06-29T07:21:18.567Z,12.33
2018-06-29T07:23:46.724Z,11.60
2018-06-29T07:26:15.433Z,11.00
2018-06-29T07:28:43.600Z,11.07
2018-06-29T07:31:12.147Z,11.77
2018-06-29T07:33:40.387Z,12.47
2018-06-29T07:36:08.597Z,11.13
2018-06-29T07:38:37.164Z,10.23
2018-06-29T07:41:05.456Z,9.83
2018-06-29T07:43:33.739Z,10.60
2018-06-29T07:46:02.096Z,11.03
2018-06-29T07:48:30.362Z,11.33
2018-06-29T07:50:58.926Z,10.57
2018-06-29T07:53:27.161Z,10.80
2018-06-29T07:55:55.331Z,10.77
2018-06-29T07:58:23.727Z,11.53
2018-06-29T08:00:52.212Z,11.73
2018-06-29T08:03:20.385Z,11.30
2018-06-29T08:05:48.719Z,11.63
2018-06-29T08:08:17.004Z,11.50
2018-06-29T08:10:45.355Z,10.97
2018-06-29T08:13:13.693Z,10.97
2018-06-29T08:15:42.080Z,10.93
2018-06-29T08:18:10.230Z,11.40
2018-06-29T08:20:38.953Z,10.37
2018-06-29T08:23:07.164Z,9.70
2018-06-29T08:25:35.348Z,8.90
2018-06-29T08:28:03.528Z,9.53
2018-06-29T08:30:31.749Z,9.13
2018-06-29T08:33:00.060Z,9.40
2018-06-29T08:35:28.612Z,9.70
2018-06-29T08:37:56.787Z,10.30
2018-06-29T08:40:25.375Z,10.23
2018-06-29T08:42:53.711Z,10.00
2018-06-29T08:45:21.887Z,10.07
2018-06-29T08:47:50.194Z,9.40
2018-06-29T08:50:18.464Z,9.17
2018-06-29T08:52:46.625Z,9.87
2018-06-29T08:55:14.800Z,9.77
2018-06-29T08:57:43.060Z,9.53
2018-06-29T09:00:11.342Z,10.10
2018-06-29T09:02:39.997Z,9.90
2018-06-29T09:05:08.823Z,10.50
2018-06-29T09:07:36.972Z,9.33
2018-06-29T09:10:05.243Z,9.73
2018-06-29T09:12:33.548Z,9.80
2018-06-29T09:15:01.828Z,9.20
2018-06-29T09:17:30.092Z,9.20
2018-06-29T09:19:58.278Z,9.30
2018-06-29T09:22:26.448Z,9.43
2018-06-29T09:24:54.744Z,9.80
2018-06-29T09:27:23.031Z,9.20
2018-06-29T09:29:51.402Z,8.60
2018-06-29T09:32:19.957Z,10.33
2018-06-29T09:34:48.233Z,9.70
2018-06-29T09:37:16.436Z,10.10
2018-06-29T09:39:44.595Z,9.03
2018-06-29T09:42:12.752Z,10.67
2018-06-29T09:44:41.013Z,10.30
2018-06-29T09:47:09.605Z,10.03
2018-06-29T09:49:37.911Z,10.53
2018-06-29T09:52:06.210Z,10.97
2018-06-29T09:54:34.494Z,10.27
2018-06-29T09:57:02.994Z,11.70
2018-06-29T09:59:31.155Z,9.40
2018-06-29T10:01:59.677Z,10.10
2018-06-29T10:04:28.079Z,10.00
2018-06-29T10:06:56.367Z,10.37
2018-06-29T10:09:24.648Z,10.00
2018-06-29T10:11:52.912Z,10.77
2018-06-29T10:14:21.433Z,8.97
2018-06-29T10:16:50.095Z,9.83
2018-06-29T10:19:18.314Z,9.93
2018-06-29T10:21:46.618Z,9.83
2018-06-29T10:24:14.784Z,10.43
2018-06-29T10:26:43.500Z,10.47
2018-06-29T10:29:11.910Z,10.30
2018-06-29T10:31:40.163Z,9.67
2018-06-29T10:34:08.504Z,10.57
2018-06-29T10:36:36.855Z,11.00
2018-06-29T10:39:08.028Z,9.87
2018-06-29T10:41:36.236Z,9.07
2018-06-29T10:44:04.647Z,10.27
2018-06-29T10:46:33.150Z,9.13
2018-06-29T10:49:01.827Z,8.50
2018-06-29T10:51:30.186Z,9.00
2018-06-29T10:53:58.565Z,8.90
2018-06-29T10:56:26.828Z,9.57
2018-06-29T10:58:55.908Z,7.93
2018-06-29T11:01:24.130Z,9.00
2018-06-29T11:03:52.889Z,7.90
2018-06-29T11:06:21.168Z,9.07
2018-06-29T11:08:49.434Z,8.90
2018-06-29T11:11:17.684Z,8.90
2018-06-29T11:13:45.992Z,8.63
2018-06-29T11:16:14.406Z,8.93
2018-06-29T11:18:42.796Z,9.17
2018-06-29T11:21:10.971Z,9.90
2018-06-29T11:23:39.196Z,7.97
2018-06-29T11:26:07.812Z,8.33
2018-06-29T11:28:35.969Z,9.63
2018-06-29T11:31:04.137Z,8.80
2018-06-29T11:33:32.504Z,8.40
2018-06-29T11:36:00.713Z,8.80
2018-06-29T11:38:28.968Z,9.40
2018-06-29T11:40:57.680Z,10.53
2018-06-29T11:43:25.858Z,9.43
2018-06-29T11:45:54.359Z,9.87
2018-06-29T11:48:22.911Z,9.70
2018-06-29T11:50:51.136Z,9.37
2018-06-29T11:53:19.386Z,9.80
2018-06-29T11:55:47.519Z,9.00
2018-06-29T11:58:15.747Z,9.33
2018-06-29T12:00:44.076Z,9.93
2018-06-29T12:03:12.668Z,9.67
2018-06-29T12:05:41.068Z,8.77
2018-06-29T12:08:09.951Z,9.90
2018-06-29T12:10:38.165Z,9.20
2018-06-29T12:13:06.420Z,9.63
2018-06-29T12:15:34.588Z,9.00
2018-06-29T12:18:02.762Z,9.37
2018-06-29T12:20:31.160Z,9.03
2018-06-29T12:22:59.431Z,9.60
2018-06-29T12:25:27.717Z,8.30
2018-06-29T12:27:56.207Z,9.17
2018-06-29T12:30:24.618Z,8.00
2018-06-29T12:32:52.956Z,8.57
2018-06-29T12:35:21.206Z,7.83
2018-06-29T12:37:49.531Z,7.80
2018-06-29T12:40:17.798Z,8.27
2018-06-29T12:42:46.086Z,8.50
2018-06-29T12:45:14.332Z,8.20
2018-06-29T12:47:42.564Z,8.40
2018-06-29T12:50:10.785Z,7.87
2018-06-29T12:52:39.400Z,8.13
2018-06-29T12:55:07.569Z,7.57
2018-06-29T12:57:35.739Z,7.20
2018-06-29T13:00:03.943Z,6.80
2018-06-29T13:02:32.219Z,6.87
2018-06-29T13:05:00.432Z,7.10
2018-06-29T13:07:28.713Z,6.77
2018-06-29T13:09:56.938Z,6.50
2018-06-29T13:12:26.740Z,6.77
2018-06-29T13:14:54.913Z,6.90
2018-06-29T13:17:23.309Z,7.30
2018-06-29T13:19:51.587Z,5.43
2018-06-29T13:22:19.724Z,5.67
2018-06-29T13:24:47.933Z,5.80
2018-06-29T13:27:16.280Z,5.50
2018-06-29T13:29:44.715Z,5.13
2018-06-29T13:32:12.948Z,5.63
2018-06-29T13:34:41.303Z,6.03
2018-06-29T13:37:09.501Z,5.50
2018-06-29T13:39:37.982Z,5.47
2018-06-29T13:42:06.298Z,5.53
2018-06-29T13:44:34.446Z,5.60
2018-06-29T13:47:02.649Z,5.63
2018-06-29T13:49:30.799Z,5.30
2018-06-29T13:51:59.020Z,5.17
2018-06-29T13:54:27.232Z,5.53
2018-06-29T13:56:55.397Z,5.70
2018-06-29T13:59:23.627Z,6.10
2018-06-29T14:01:51.802Z,5.73
2018-06-29T14:04:20.149Z,5.53
2018-06-29T14:06:48.464Z,5.87
2018-06-29T14:09:16.677Z,5.83
2018-06-29T14:11:44.994Z,5.67
2018-06-29T14:14:13.535Z,5.57
2018-06-29T14:16:41.835Z,5.50
2018-06-29T14:19:10.419Z,5.13
2018-06-29T14:21:38.609Z,6.00
2018-06-29T14:24:06.752Z,5.43
2018-06-29T14:26:35.036Z,5.53
2018-06-29T14:29:03.330Z,5.40
2018-06-29T14:31:31.716Z,5.50
2018-06-29T14:33:59.973Z,5.17
2018-06-29T14:36:28.168Z,5.70
2018-06-29T14:38:56.343Z,5.80
2018-06-29T14:41:24.502Z,6.23
2018-06-29T14:43:53.175Z,5.70
2018-06-29T14:46:21.475Z,5.90
2018-06-29T14:48:49.771Z,5.90
2018-06-29T14:51:18.015Z,6.40
2018-06-29T14:53:46.332Z,5.80
2018-06-29T14:56:14.485Z,5.70
2018-06-29T14:58:42.644Z,6.07
2018-06-29T15:01:11.216Z,5.30
2018-06-29T15:03:39.359Z,5.30
2018-06-29T15:06:07.525Z,5.47
2018-06-29T15:08:35.709Z,5.10
2018-06-29T15:11:03.884Z,5.60
2018-06-29T15:13:32.071Z,5.40
2018-06-29T15:16:00.257Z,4.80
2018-06-29T15:18:28.412Z,5.70
2018-06-29T15:20:56.558Z,5.67
2018-06-29T15:23:24.706Z,5.50
2018-06-29T15:25:52.981Z,5.67
2018-06-29T15:28:22.160Z,5.67
2018-06-29T15:30:50.321Z,5.23
2018-06-29T15:33:18.521Z,5.00
2018-06-29T15:35:46.755Z,6.10
2018-06-29T15:38:14.955Z,5.00
2018-06-29T15:40:43.091Z,5.40
2018-06-29T15:43:12.120Z,5.33
2018-06-29T15:45:40.285Z,5.53
2018-06-29T15:48:08.689Z,6.60
2018-06-29T15:50:36.970Z,5.67
2018-06-29T15:53:05.687Z,5.53
2018-06-29T15:55:33.881Z,5.37
2018-06-29T15:58:02.388Z,5.70
2018-06-29T16:00:30.602Z,5.60
2018-06-29T16:02:59.524Z,5.30
2018-06-29T16:05:28.218Z,6.37
2018-06-29T16:07:57.196Z,5.40
2018-06-29T16:10:25.798Z,5.90
2018-06-29T16:12:54.369Z,6.20
2018-06-29T16:15:22.692Z,5.70
2018-06-29T16:17:51.045Z,6.60
2018-06-29T16:20:19.321Z,5.87
2018-06-29T16:22:47.680Z,6.27
2018-06-29T16:25:15.866Z,5.87
2018-06-29T16:27:44.031Z,6.27
2018-06-29T16:30:13.557Z,5.67
2018-06-29T16:32:43.023Z,5.97
2018-06-29T16:35:11.488Z,5.97
2018-06-29T16:37:40.117Z,6.37
2018-06-29T16:40:08.545Z,5.60
2018-06-29T16:42:36.764Z,5.90
2018-06-29T16:45:04.989Z,6.17
2018-06-29T16:47:33.199Z,6.30
2018-06-29T16:50:01.424Z,6.03
2018-06-29T16:52:29.782Z,5.73
2018-06-29T16:54:58.074Z,5.50
2018-06-29T16:57:26.616Z,5.83
2018-06-29T16:59:55.150Z,6.30
2018-06-29T17:02:23.384Z,5.77
2018-06-29T17:04:51.574Z,6.77
2018-06-29T17:07:19.832Z,5.40
2018-06-29T17:09:48.329Z,5.70
2018-06-29T17:12:16.891Z,6.07
2018-06-29T17:14:45.196Z,5.97
2018-06-29T17:17:13.556Z,6.37
2018-06-29T17:19:41.870Z,6.17
2018-06-29T17:22:10.122Z,5.63
2018-06-29T17:24:38.595Z,6.17
2018-06-29T17:27:06.788Z,6.17
2018-06-29T17:29:34.984Z,6.00
2018-06-29T17:32:03.648Z,5.80
2018-06-29T17:34:32.174Z,6.33
2018-06-29T17:37:00.416Z,5.90
2018-06-29T17:39:28.608Z,5.20
2018-06-29T17:41:56.801Z,5.90
2018-06-29T17:44:24.972Z,5.83
2018-06-29T17:46:53.275Z,5.97
2018-06-29T17:49:21.496Z,6.17
2018-06-29T17:51:49.695Z,6.63
2018-06-29T17:54:18.248Z,5.87
2018-06-29T17:56:46.430Z,6.10
2018-06-29T17:59:14.576Z,5.87
2018-06-29T18:01:42.768Z,6.30
2018-06-29T18:04:10.952Z,6.37
2018-06-29T18:06:39.473Z,6.23
2018-06-29T18:09:08.785Z,6.20
2018-06-29T18:11:37.158Z,6.30
2018-06-29T18:14:05.867Z,6.23
2018-06-29T18:16:34.087Z,6.40
2018-06-29T18:19:02.832Z,6.53
2018-06-29T18:21:30.994Z,6.83
2018-06-29T18:23:59.157Z,6.13
2018-06-29T18:26:27.304Z,6.23
2018-06-29T18:28:55.456Z,6.17
2018-06-29T18:31:23.843Z,8.07
2018-06-29T18:33:52.047Z,6.47
2018-06-29T18:36:20.593Z,7.33
2018-06-29T18:38:49.024Z,6.80
2018-06-29T18:41:17.177Z,6.83
2018-06-29T18:43:45.330Z,7.07
2018-06-29T18:46:13.504Z,6.43
2018-06-29T18:48:41.648Z,6.70
2018-06-29T18:51:09.860Z,6.53
2018-06-29T18:53:38.140Z,6.73
2018-06-29T18:56:06.476Z,6.83
2018-06-29T18:58:34.732Z,7.07
2018-06-29T19:01:02.944Z,7.23
2018-06-29T19:03:31.275Z,6.90
2018-06-29T19:05:59.451Z,7.03
2018-06-29T19:08:27.656Z,7.00
2018-06-29T19:10:55.864Z,7.00
2018-06-29T19:13:24.027Z,7.87
2018-06-29T19:15:52.249Z,8.37
2018-06-29T19:18:20.513Z,7.77
2018-06-29T19:20:48.794Z,7.20
2018-06-29T19:23:17.069Z,7.23
2018-06-29T19:25:45.342Z,7.40
2018-06-29T19:28:13.529Z,6.83
2018-06-29T19:30:42.102Z,6.63
2018-06-29T19:33:10.628Z,6.00
2018-06-29T19:35:38.891Z,6.97
2018-06-29T19:38:07.177Z,7.40
2018-06-29T19:40:35.456Z,7.20
2018-06-29T19:43:03.688Z,6.87
2018-06-29T19:45:32.140Z,7.70
2018-06-29T19:48:00.327Z,7.80
2018-06-29T19:50:28.537Z,7.63
2018-06-29T19:52:56.739Z,8.07
2018-06-29T19:55:25.106Z,7.40
2018-06-29T19:57:53.364Z,8.30
2018-06-29T20:00:21.540Z,8.57
2018-06-29T20:02:49.707Z,8.23
2018-06-29T20:05:18.165Z,7.93
2018-06-29T20:07:46.761Z,8.43
2018-06-29T20:10:15.418Z,8.90
2018-06-29T20:12:43.955Z,8.80
2018-06-29T20:15:12.548Z,8.30
2018-06-29T20:17:40.692Z,9.67
2018-06-29T20:20:09.714Z,9.17
2018-06-29T20:22:38.089Z,9.10
2018-06-29T20:25:06.615Z,8.67
2018-06-29T20:27:35.296Z,9.37
2018-06-29T20:30:03.792Z,10.00
2018-06-29T20:32:32.062Z,9.10
2018-06-29T20:35:00.520Z,9.70
2018-06-29T20:37:28.848Z,8.83
2018-06-29T20:39:57.023Z,9.73
2018-06-29T20:42:25.373Z,9.60
2018-06-29T20:44:53.534Z,9.63
2018-06-29T20:47:21.751Z,9.10
2018-06-29T20:49:50.002Z,9.90
2018-06-29T20:52:18.294Z,9.77
2018-06-29T20:54:46.494Z,9.77
2018-06-29T20:57:14.655Z,9.77
2018-06-29T20:59:42.811Z,10.30
2018-06-29T21:02:11.087Z,10.80
2018-06-29T21:04:39.711Z,10.37
2018-06-29T21:07:08.465Z,10.50
2018-06-29T21:09:36.622Z,10.17
2018-06-29T21:12:05.106Z,10.27
2018-06-29T21:14:33.706Z,10.20
2018-06-29T21:17:02.005Z,10.30
2018-06-29T21:19:30.306Z,10.40
2018-06-29T21:21:58.617Z,10.70
2018-06-29T21:24:26.921Z,10.77
2018-06-29T21:26:55.099Z,11.37
2018-06-29T21:29:23.267Z,10.10
2018-06-29T21:31:51.764Z,11.03
2018-06-29T21:34:19.964Z,10.90
2018-06-29T21:36:48.663Z,10.73
2018-06-29T21:39:16.825Z,11.83
2018-06-29T21:41:44.987Z,11.30
2018-06-29T21:44:13.196Z,11.03
2018-06-29T21:46:41.460Z,11.50
2018-06-29T21:49:09.732Z,11.93
2018-06-29T21:51:37.963Z,11.60
2018-06-29T21:54:06.323Z,12.20
2018-06-29T21:56:34.621Z,11.77
2018-06-29T21:59:02.890Z,11.40
2018-06-29T22:01:31.173Z,10.90
2018-06-29T22:03:59.343Z,11.60
2018-06-29T22:06:27.512Z,12.23
2018-06-29T22:08:55.714Z,11.20
2018-06-29T22:11:23.870Z,12.20
2018-06-29T22:13:52.416Z,11.17
2018-06-29T22:16:20.712Z,11.40
2018-06-29T22:18:48.876Z,11.53
2018-06-29T22:21:17.165Z,12.00
2018-06-29T22:23:45.329Z,10.97
2018-06-29T22:26:13.472Z,10.90
2018-06-29T22:28:41.685Z,11.40
2018-06-29T22:31:09.923Z,11.73
2018-06-29T22:33:38.143Z,11.57
2018-06-29T22:36:06.331Z,12.03
2018-06-29T22:38:34.511Z,11.87
2018-06-29T22:41:02.753Z,12.17
2018-06-29T22:43:30.989Z,12.07
2018-06-29T22:45:59.270Z,11.53
2018-06-29T22:48:27.436Z,11.13
2018-06-29T22:50:56.507Z,12.20
2018-06-29T22:53:24.658Z,11.67
2018-06-29T22:55:52.823Z,11.90
2018-06-29T22:58:20.951Z,11.93
2018-06-29T23:00:49.486Z,11.47
2018-06-29T23:03:17.675Z,12.23
2018-06-29T23:05:45.851Z,12.63
2018-06-29T23:08:14.022Z,12.20
2018-06-29T23:10:42.351Z,12.37
2018-06-29T23:13:10.580Z,12.43
2018-06-29T23:15:38.797Z,12.43
2018-06-29T23:18:07.153Z,13.43
2018-06-29T23:20:35.724Z,12.87
2018-06-29T23:23:03.876Z,14.00
2018-06-29T23:25:32.030Z,14.03
2018-06-29T23:28:00.195Z,13.27
2018-06-29T23:30:28.440Z,12.93
2018-06-29T23:32:56.612Z,13.30
2018-06-29T23:35:24.814Z,12.87
2018-06-29T23:37:53.351Z,15.03
2018-06-29T23:40:21.686Z,13.40
2018-06-29T23:42:49.848Z,14.00
2018-06-29T23:45:18.000Z,14.50
2018-06-29T23:47:46.379Z,13.63
2018-06-29T23:50:14.529Z,14.33
2018-06-29T23:52:42.827Z,12.90
2018-06-29T23:55:11.499Z,13.77
2018-06-29T23:57:39.723Z,14.10
